South AfricaFixed distance
Om Die Dam 50km
18 Mar2000
Distance
50km
Finishers
5,1664,084 men1,082 women
Winning time
2:56:12h
Median pace
9.34km/h
Pace distribution
5,166 finishers · 7.42–17.03 km/h · mean 9.62
Every finisher ran the same 50 km course, so these paces are directly comparable.
Histogram of finisher pace. 5,166 finishers ranged from 7.42 to 17.03 kilometres per hour, with a mean of 9.62 and a median of 9.34. The busiest band is 8.5 to 9.0 kilometres per hour, with 872 finishers.
Results
Ranks 1,401–1,450 of 5,166
| Rank | Runner | Time | Pace | Cat. | Placing |
|---|---|---|---|---|---|
| 1401 | Molyneaux, AlanSouth AfricaMan RRW | 4:53:28h | 10.22 | M55 | 1262nd M · 19th M55 |
| 1402 | Burger, BennieSouth AfricaMan Ppmc | 4:53:29h | 10.22 | M35 | 1263rd M · 281st M35 |
| 1403 | Olivier, TheoSouth AfricaMan Bethal | 4:53:30h | 10.22 | M35 | 1264th M · 282nd M35 |
| 1404 | Cloete, DawieSouth AfricaMan Reserwe | 4:53:30h | 10.22 | M23 | 1264th M · 379th M23 |
| 1405 | Pienaar, LouisSouth AfricaMan Ipac | 4:53:31h | 10.22 | M23 | 1266th M · 380th M23 |
| 1406 | Boring, LisaSouth AfricaWoman JQ | 4:53:34h | 10.22 | W23 | 140th F · 46th W23 |
| 1407 | Farrell, NicSouth AfricaMan Akasia | 4:53:34h | 10.22 | M35 | 1267th M · 283rd M35 |
| 1408 | du Plessis, GerhardSouth AfricaMan Fit2000 | 4:53:36h | 10.22 | MU23 | 1268th M · 32nd MU23 |
| 1409 | Kerr, GrantSouth AfricaMan Dosco | 4:53:37h | 10.22 | M35 | 1269th M · 284th M35 |
| 1410 | Magan, KishoreSouth AfricaMan Benh | 4:53:38h | 10.22 | M35 | 1270th M · 285th M35 |
| 1411 | Webber, BrianSouth AfricaMan MSC | 4:53:38h | 10.22 | M45 | 1270th M · 109th M45 |
| 1412 | Oosthuizen, GilbertSouth AfricaMan Vryheid | 4:53:41h | 10.21 | M23 | 1272nd M · 381st M23 |
| 1413 | Krugel, DanieSouth AfricaMan Alpha Cent | 4:53:41h | 10.21 | M40 | 1272nd M · 240th M40 |
| 1414 | Bainbridge, StephenSouth AfricaMan JQ | 4:53:41h | 10.21 | M45 | 1272nd M · 110th M45 |
| 1415 | de Jager, ErnestSouth AfricaMan Henley | 4:53:44h | 10.21 | M50 | 1275th M · 64th M50 |
| 1416 | Valasis, JohnSouth AfricaMan JQ | 4:53:44h | 10.21 | M55 | 1275th M · 20th M55 |
| 1417 | Oliver, DesmondSouth AfricaMan Krugpad | 4:53:46h | 10.21 | M40 | 1277th M · 241st M40 |
| 1418 | Pirker, GunterSouth AfricaMan RRW | 4:53:49h | 10.21 | — | 1278th M |
| 1419 | Stapelberg, SchalkSouth AfricaMan Berts Bricks | 4:53:49h | 10.21 | M35 | 1278th M · 286th M35 |
| 1420 | Loader, CarlSouth AfricaMan RAC | 4:53:50h | 10.21 | M35 | 1280th M · 287th M35 |
| 1421 | Grasko, ShalinSouth AfricaMan JQ | 4:53:51h | 10.21 | — | 1281st M |
| 1422 | Brandon-Kirby, Michael NormanSouth AfricaMan Albert | 4:53:51h | 10.21 | M23 | 1281st M · 382nd M23 |
| 1423 | Jansen, DirkSouth AfricaMan Botha | 4:53:53h | 10.21 | M35 | 1283rd M · 288th M35 |
| 1424 | Davis, AtholSouth AfricaMan KS | 4:53:55h | 10.21 | M40 | 1284th M · 242nd M40 |
| 1425 | Eslick, KarenSouth AfricaWoman Boks | 4:53:57h | 10.21 | W35 | 141st F · 45th W35 |
| 1426 | Harvey, RobertSouth AfricaMan Boks | 4:54:00h | 10.20 | M23 | 1285th M · 383rd M23 |
| 1427 | Mashego, JohannesSouth AfricaMan Taccg | 4:54:01h | 10.20 | M45 | 1286th M · 111th M45 |
| 1428 | Booyens, AndreSouth AfricaMan Akasia | 4:54:03h | 10.20 | M35 | 1287th M · 289th M35 |
| 1429 | Lagerwall, KennethSouth AfricaMan Temp | 4:54:03h | 10.20 | M40 | 1287th M · 243rd M40 |
| 1430 | Chauke, AlbertSouth AfricaMan Gijimas | 4:54:04h | 10.20 | M35 | 1289th M · 290th M35 |
| 1431 | Shelembe, Watson ThembiSouth AfricaMan MT Everest | 4:54:06h | 10.20 | M45 | 1290th M · 112th M45 |
| 1432 | Hollow, Wayne KennethSouth AfricaMan RH | 4:54:06h | 10.20 | M35 | 1290th M · 291st M35 |
| 1433 | Wilensky, LarrySouth AfricaMan BCC | 4:54:06h | 10.20 | M23 | 1290th M · 384th M23 |
| 1434 | Swarts, Creighton DomileSouth AfricaMan Tacgn | 4:54:10h | 10.20 | M23 | 1293rd M · 385th M23 |
| 1435 | Wehmeier, DeonSouth AfricaMan Taccg | 4:54:13h | 10.20 | M23 | 1294th M · 386th M23 |
| 1436 | Ridderhof, MikeSouth AfricaMan Rwater | 4:54:17h | 10.19 | M40 | 1295th M · 244th M40 |
| 1437 | Smit, LouwrensSouth AfricaMan Esselen Park | 4:54:17h | 10.19 | M35 | 1295th M · 292nd M35 |
| 1438 | Herholdt, GawieSouth AfricaMan Rwavt | 4:54:18h | 10.19 | M35 | 1297th M · 293rd M35 |
| 1439 | MacKenzie, DonaldSouth AfricaMan Khosa | 4:54:18h | 10.19 | M50 | 1297th M · 65th M50 |
| 1440 | Stevenson, RobSouth AfricaMan Florida | 4:54:20h | 10.19 | M45 | 1299th M · 113th M45 |
| 1441 | de Jager, FrikSouth AfricaMan EMK | 4:54:21h | 10.19 | — | 1300th M |
| 1442 | Verster, SakkieSouth AfricaMan Akasia | 4:54:21h | 10.19 | M35 | 1300th M · 294th M35 |
| 1443 | Pienaar, PieterSouth AfricaMan Volttuk | 4:54:25h | 10.19 | — | 1302nd M |
| 1444 | Visser, ElineSouth AfricaWoman Gimsana | 4:54:30h | 10.19 | W23 | 142nd F · 47th W23 |
| 1445 | Seyfferdt, JohannSouth AfricaMan Rpmuc | 4:54:31h | 10.19 | — | 1303rd M |
| 1446 | Poisson, WayneSouth AfricaMan Khosa | 4:54:34h | 10.18 | M23 | 1304th M · 387th M23 |
| 1447 | van der Merwe, PatSouth AfricaMan Ipac | 4:54:34h | 10.18 | — | 1304th M |
| 1448 | Masinga, NelsonSouth AfricaMan Gijimas | 4:54:34h | 10.18 | M35 | 1304th M · 295th M35 |
| 1449 | Grobler, JohanSouth AfricaMan RMC | 4:54:38h | 10.18 | — | 1307th M |
| 1450 | Sooka, NavinSouth AfricaMan Lenasia | 4:54:39h | 10.18 | M45 | 1308th M · 114th M45 |
- 1401Molyneaux, AlanSouth AfricaManRRW1262nd M · 19th M55Time4:53:28hPace10.22Cat.M55
- 1402Burger, BennieSouth AfricaManPpmc1263rd M · 281st M35Time4:53:29hPace10.22Cat.M35
- 1403Olivier, TheoSouth AfricaManBethal1264th M · 282nd M35Time4:53:30hPace10.22Cat.M35
- 1404Cloete, DawieSouth AfricaManReserwe1264th M · 379th M23Time4:53:30hPace10.22Cat.M23
- 1405Pienaar, LouisSouth AfricaManIpac1266th M · 380th M23Time4:53:31hPace10.22Cat.M23
- 1406Boring, LisaSouth AfricaWomanJQ140th F · 46th W23Time4:53:34hPace10.22Cat.W23
- 1407Farrell, NicSouth AfricaManAkasia1267th M · 283rd M35Time4:53:34hPace10.22Cat.M35
- 1408du Plessis, GerhardSouth AfricaManFit20001268th M · 32nd MU23Time4:53:36hPace10.22Cat.MU23
- 1409Kerr, GrantSouth AfricaManDosco1269th M · 284th M35Time4:53:37hPace10.22Cat.M35
- 1410Magan, KishoreSouth AfricaManBenh1270th M · 285th M35Time4:53:38hPace10.22Cat.M35
- 1411Webber, BrianSouth AfricaManMSC1270th M · 109th M45Time4:53:38hPace10.22Cat.M45
- 1412Oosthuizen, GilbertSouth AfricaManVryheid1272nd M · 381st M23Time4:53:41hPace10.21Cat.M23
- 1413Krugel, DanieSouth AfricaManAlpha Cent1272nd M · 240th M40Time4:53:41hPace10.21Cat.M40
- 1414Bainbridge, StephenSouth AfricaManJQ1272nd M · 110th M45Time4:53:41hPace10.21Cat.M45
- 1415de Jager, ErnestSouth AfricaManHenley1275th M · 64th M50Time4:53:44hPace10.21Cat.M50
- 1416Valasis, JohnSouth AfricaManJQ1275th M · 20th M55Time4:53:44hPace10.21Cat.M55
- 1417Oliver, DesmondSouth AfricaManKrugpad1277th M · 241st M40Time4:53:46hPace10.21Cat.M40
- 1418Pirker, GunterSouth AfricaManRRW1278th MTime4:53:49hPace10.21
- 1419Stapelberg, SchalkSouth AfricaManBerts Bricks1278th M · 286th M35Time4:53:49hPace10.21Cat.M35
- 1420Loader, CarlSouth AfricaManRAC1280th M · 287th M35Time4:53:50hPace10.21Cat.M35
- 1421Grasko, ShalinSouth AfricaManJQ1281st MTime4:53:51hPace10.21
- 1422Brandon-Kirby, Michael NormanSouth AfricaManAlbert1281st M · 382nd M23Time4:53:51hPace10.21Cat.M23
- 1423Jansen, DirkSouth AfricaManBotha1283rd M · 288th M35Time4:53:53hPace10.21Cat.M35
- 1424Davis, AtholSouth AfricaManKS1284th M · 242nd M40Time4:53:55hPace10.21Cat.M40
- 1425Eslick, KarenSouth AfricaWomanBoks141st F · 45th W35Time4:53:57hPace10.21Cat.W35
- 1426Harvey, RobertSouth AfricaManBoks1285th M · 383rd M23Time4:54:00hPace10.20Cat.M23
- 1427Mashego, JohannesSouth AfricaManTaccg1286th M · 111th M45Time4:54:01hPace10.20Cat.M45
- 1428Booyens, AndreSouth AfricaManAkasia1287th M · 289th M35Time4:54:03hPace10.20Cat.M35
- 1429Lagerwall, KennethSouth AfricaManTemp1287th M · 243rd M40Time4:54:03hPace10.20Cat.M40
- 1430Chauke, AlbertSouth AfricaManGijimas1289th M · 290th M35Time4:54:04hPace10.20Cat.M35
- 1431Shelembe, Watson ThembiSouth AfricaManMT Everest1290th M · 112th M45Time4:54:06hPace10.20Cat.M45
- 1432Hollow, Wayne KennethSouth AfricaManRH1290th M · 291st M35Time4:54:06hPace10.20Cat.M35
- 1433Wilensky, LarrySouth AfricaManBCC1290th M · 384th M23Time4:54:06hPace10.20Cat.M23
- 1434Swarts, Creighton DomileSouth AfricaManTacgn1293rd M · 385th M23Time4:54:10hPace10.20Cat.M23
- 1435Wehmeier, DeonSouth AfricaManTaccg1294th M · 386th M23Time4:54:13hPace10.20Cat.M23
- 1436Ridderhof, MikeSouth AfricaManRwater1295th M · 244th M40Time4:54:17hPace10.19Cat.M40
- 1437Smit, LouwrensSouth AfricaManEsselen Park1295th M · 292nd M35Time4:54:17hPace10.19Cat.M35
- 1438Herholdt, GawieSouth AfricaManRwavt1297th M · 293rd M35Time4:54:18hPace10.19Cat.M35
- 1439MacKenzie, DonaldSouth AfricaManKhosa1297th M · 65th M50Time4:54:18hPace10.19Cat.M50
- 1440Stevenson, RobSouth AfricaManFlorida1299th M · 113th M45Time4:54:20hPace10.19Cat.M45
- 1441de Jager, FrikSouth AfricaManEMK1300th MTime4:54:21hPace10.19
- 1442Verster, SakkieSouth AfricaManAkasia1300th M · 294th M35Time4:54:21hPace10.19Cat.M35
- 1443Pienaar, PieterSouth AfricaManVolttuk1302nd MTime4:54:25hPace10.19
- 1444Visser, ElineSouth AfricaWomanGimsana142nd F · 47th W23Time4:54:30hPace10.19Cat.W23
- 1445Seyfferdt, JohannSouth AfricaManRpmuc1303rd MTime4:54:31hPace10.19
- 1446Poisson, WayneSouth AfricaManKhosa1304th M · 387th M23Time4:54:34hPace10.18Cat.M23
- 1447van der Merwe, PatSouth AfricaManIpac1304th MTime4:54:34hPace10.18
- 1448Masinga, NelsonSouth AfricaManGijimas1304th M · 295th M35Time4:54:34hPace10.18Cat.M35
- 1449Grobler, JohanSouth AfricaManRMC1307th MTime4:54:38hPace10.18
- 1450Sooka, NavinSouth AfricaManLenasia1308th M · 114th M45Time4:54:39hPace10.18Cat.M45
Showing ranks 1,401–1,450 of 5,166